Estación de Azapa medio
Ultimos registro cada 15 minutos 63
| N° | Estación | Fecha / Hora | Temperatura | Humedad | Lluvia | Velocidad | Dirección | Radiación | Presion |
| 63 | Azapa medio | 02-05-2026 15:30 | 23,3 | 51,7 | 0 | 0,9 | 95 | 386 | 968 |
| 62 | Azapa medio | 02-05-2026 15:15 | 23,4 | 51,3 | 0 | 1,1 | 92 | 416 | 968 |
| 61 | Azapa medio | 02-05-2026 15:00 | 23,8 | 49,8 | 0 | 0,8 | 305 | 444 | 968 |
| 60 | Azapa medio | 02-05-2026 14:45 | 23,9 | 50,1 | 0 | 0,6 | 311 | 469 | 968 |
| 59 | Azapa medio | 02-05-2026 14:30 | 23,8 | 50,9 | 0 | 0,9 | 311 | 489 | 968 |
| 58 | Azapa medio | 02-05-2026 14:15 | 24 | 50,9 | 0 | 0,8 | 319 | 507 | 968 |
| 57 | Azapa medio | 02-05-2026 14:00 | 23,6 | 50,6 | 0 | 1,1 | 63 | 523 | 969 |
| 56 | Azapa medio | 02-05-2026 13:45 | 23,7 | 51,2 | 0 | 0,8 | 323 | 537 | 969 |
| 55 | Azapa medio | 02-05-2026 13:30 | 23,7 | 51,1 | 0 | 0,5 | 87 | 548 | 969 |
| 54 | Azapa medio | 02-05-2026 13:15 | 23,3 | 50,8 | 0 | 1,1 | 75 | 553 | 969 |
| 53 | Azapa medio | 02-05-2026 13:00 | 23,2 | 51,9 | 0 | 1,4 | 69 | 557 | 969 |
| 52 | Azapa medio | 02-05-2026 12:45 | 22,9 | 52,4 | 0 | 1,5 | 67 | 557 | 969 |
| 51 | Azapa medio | 02-05-2026 12:30 | 22,8 | 53,7 | 0 | 1 | 64 | 554 | 969 |
| 50 | Azapa medio | 02-05-2026 12:15 | 22,8 | 54,2 | 0 | 1,2 | 61 | 547 | 970 |
| 49 | Azapa medio | 02-05-2026 12:00 | 22,4 | 53,3 | 0 | 1,2 | 65 | 537 | 970 |
| 48 | Azapa medio | 02-05-2026 11:45 | 21,9 | 55,9 | 0 | 1,1 | 61 | 524 | 970 |
| 47 | Azapa medio | 02-05-2026 11:30 | 21,3 | 57,6 | 0 | 1,3 | 59 | 507 | 970 |
| 46 | Azapa medio | 02-05-2026 11:15 | 20,9 | 59 | 0 | 1,3 | 45 | 489 | 970 |
| 45 | Azapa medio | 02-05-2026 11:00 | 20,7 | 59,7 | 0 | 1,3 | 40 | 464 | 971 |
| 44 | Azapa medio | 02-05-2026 10:45 | 20,2 | 61,7 | 0 | 1,2 | 34 | 333 | 971 |
| 43 | Azapa medio | 02-05-2026 10:30 | 19,9 | 63,3 | 0 | 1,2 | 35 | 260 | 971 |
| 42 | Azapa medio | 02-05-2026 10:15 | 20,2 | 61,6 | 0 | 1,3 | 40 | 172 | 970 |
| 41 | Azapa medio | 02-05-2026 10:00 | 20 | 62,3 | 0 | 0,7 | 41 | 413 | 970 |
| 40 | Azapa medio | 02-05-2026 09:45 | 18,8 | 63,7 | 0 | 0,7 | 35 | 280 | 970 |
| 39 | Azapa medio | 02-05-2026 09:30 | 17,8 | 68,4 | 0 | 0,6 | 32 | 229 | 970 |
| 38 | Azapa medio | 02-05-2026 09:15 | 17 | 71,7 | 0 | 0,8 | 60 | 156 | 970 |
| 37 | Azapa medio | 02-05-2026 09:00 | 16,5 | 74,1 | 0 | 0,7 | 102 | 86 | 970 |
| 36 | Azapa medio | 02-05-2026 08:45 | 16,3 | 75,1 | 0 | 0,2 | 130 | 63 | 970 |
| 35 | Azapa medio | 02-05-2026 08:30 | 16 | 75,7 | 0 | 0,2 | 131 | 51 | 970 |
| 34 | Azapa medio | 02-05-2026 08:15 | 15,8 | 76,2 | 0 | 0,1 | 99 | 31 | 970 |
| 33 | Azapa medio | 02-05-2026 08:00 | 15,7 | 76,6 | 0 | 0 | 87 | 28 | 970 |
| 32 | Azapa medio | 02-05-2026 07:45 | 15,5 | 77,8 | 0 | 0 | 70 | 27 | 970 |
| 31 | Azapa medio | 02-05-2026 07:30 | 15,3 | 78,5 | 0 | 0 | 51 | 17 | 969 |
| 30 | Azapa medio | 02-05-2026 07:15 | 15,3 | 78,7 | 0 | 0 | 63 | 4 | 969 |
| 29 | Azapa medio | 02-05-2026 07:00 | 15,3 | 78,5 | 0 | 0 | 0 | 0 | 969 |
| 28 | Azapa medio | 02-05-2026 06:45 | 15,3 | 78,2 | 0 | 0 | 0 | 0 | 969 |
| 27 | Azapa medio | 02-05-2026 06:30 | 15,3 | 78,3 | 0 | 0,3 | 74 | 0 | 969 |
| 26 | Azapa medio | 02-05-2026 06:15 | 15,2 | 79,3 | 0 | 0,3 | 76 | 0 | 969 |
| 25 | Azapa medio | 02-05-2026 06:00 | 15,1 | 79,4 | 0 | 0 | 0 | 0 | 969 |
| 24 | Azapa medio | 02-05-2026 05:45 | 15 | 78,8 | 0 | 0 | 0 | 0 | 969 |
| 23 | Azapa medio | 02-05-2026 05:30 | 15 | 78,6 | 0 | 0 | 0 | 0 | 969 |
| 22 | Azapa medio | 02-05-2026 05:15 | 15 | 78,3 | 0 | 0 | 0 | 0 | 969 |
| 21 | Azapa medio | 02-05-2026 05:00 | 15 | 78,6 | 0 | 0,1 | 86 | 0 | 969 |
| 20 | Azapa medio | 02-05-2026 04:45 | 15,2 | 78 | 0 | 0 | 0 | 0 | 969 |
| 19 | Azapa medio | 02-05-2026 04:30 | 15,4 | 77,2 | 0 | 0,6 | 90 | 0 | 969 |
| 18 | Azapa medio | 02-05-2026 04:15 | 15,8 | 75,9 | 0 | 0 | 81 | 0 | 969 |
| 17 | Azapa medio | 02-05-2026 04:00 | 16 | 74,8 | 0 | 0,3 | 82 | 0 | 969 |
| 16 | Azapa medio | 02-05-2026 03:45 | 16,2 | 74,8 | 0 | 0,6 | 88 | 0 | 969 |
| 15 | Azapa medio | 02-05-2026 03:30 | 16,3 | 74,7 | 0 | 0,5 | 86 | 0 | 969 |
| 14 | Azapa medio | 02-05-2026 03:15 | 16,3 | 74,3 | 0 | 0,3 | 59 | 0 | 970 |
| 13 | Azapa medio | 02-05-2026 03:00 | 16,4 | 73,6 | 0 | 0,2 | 46 | 0 | 970 |
| 12 | Azapa medio | 02-05-2026 02:45 | 16,4 | 73,7 | 0 | 0,2 | 40 | 0 | 970 |
| 11 | Azapa medio | 02-05-2026 02:30 | 16,5 | 73,6 | 0 | 0,1 | 39 | 0 | 970 |
| 10 | Azapa medio | 02-05-2026 02:15 | 16,5 | 73,7 | 0 | 0 | 34 | 0 | 970 |
| 9 | Azapa medio | 02-05-2026 02:00 | 16,6 | 73,8 | 0 | 0,2 | 40 | 0 | 970 |
| 8 | Azapa medio | 02-05-2026 01:45 | 16,6 | 74,1 | 0 | 0,2 | 29 | 0 | 970 |
| 7 | Azapa medio | 02-05-2026 01:30 | 16,7 | 74,4 | 0 | 0 | 31 | 0 | 970 |
| 6 | Azapa medio | 02-05-2026 01:15 | 16,7 | 73,6 | 0 | 0 | 0 | 0 | 971 |
| 5 | Azapa medio | 02-05-2026 01:00 | 16,7 | 73,8 | 0 | 0,2 | 29 | 0 | 971 |
| 4 | Azapa medio | 02-05-2026 00:45 | 16,7 | 74 | 0 | 0,2 | 29 | 0 | 971 |
| 3 | Azapa medio | 02-05-2026 00:30 | 16,6 | 74,4 | 0 | 0 | 29 | 0 | 971 |
| 2 | Azapa medio | 02-05-2026 00:15 | 16,6 | 74,6 | 0 | 0 | 32 | 0 | 971 |
| 1 | Azapa medio | 02-05-2026 00:00 | 16,6 | 75,1 | 0 | 0,5 | 42 | 0 | 971 |